Aeroporto :
LOGIN :

Iscrizione | Disclaimer

   EN    FR    IT 

 










Sommario :    VFR   VFR Marginale   IFR   IFR Intensivo   IFR Molto Intensivo
Visibilità : 
Base nubi : 
>= 8 km
>= 3000ft
5 / 8 km
1000 / 3000 ft
1500m / 5 km
500 / 1000 ft
800 / 1500m
200 / 500 ft
< 800m
< 200 ft
Simboli :   Temporali  Nebbia  Neve Forte  Precipitazioni Forti  Vento > 20 kt
SIGMETs :   Varie  Temporali  Ghiacco  Turbolenza  Onda orograficha  Ceneri Vulcaniche






- Altitudine del aeroporto : 9 ft
- Codice IATA : MIR


DTMB - Habib Bourguliba Int. Monastir

ULTIMO METAR :
  • 220430Z AUTO 16003KT NCD 10/06 Q1015

METARs OBSOLETI :
  • 220400Z AUTO 00000KT NCD 12/04 Q1015
  • 220330Z 22011KT 8000 NSC 12/03 Q1014
  • 220300Z 22009KT 8000 NSC 12/04 Q1014
  • 220230Z AUTO 22003KT 190V260 NCD 12/04 Q1014
  • 220200Z 20005KT 8000 NSC 11/06 Q1014

TAF TAF DTMB
Valido dal 22 a 00 ore il 23 a 00 ore UTC


212300Z 2200/2224 21008KT 8000 NSC
BECMG 2209/2211 20016KT 9999 FEW030



MetMap, La meteo Aeronautica in un colpo d'occhio ! - Copyright ORBIFLY Dicembre 2007 - Disclaimer

ORBIFLY MET'MAP TEAM :

Programmazione e sviluppo : Alexandra Zaïnal
Concezione e sviluppo : Baudouin d'Aumeries
Co-Programmazione e sviluppo : Marc-Olivier Méhu
Supporto tecnico e logistico : Manuel Goepfert
Aiuto per la traduzione : Arnaldo La Scala

Contatto : metmap@orbifly.com




FONTI E CREDITI :

   NOAA